Time;durP1;ratioP1;P1;durP2;ratioP2;P2;SDS_P1;SDS_P2;PMS_P1;PMS_P2;Temp;Humidity;BMP_temperature;BMP_pressure;BME280_temperature;BME280_humidity;BME280_pressure;Samples;Min_cycle;Max_cycle;Signal;HPM_P1;HPM_P2
2021/11/16 00:01:25;;;;;;;31.88;21.17;;;;;;;;;;5066104;28;20191;-74
2021/11/16 00:03:52;;;;;;;25.35;16.40;;;;;;;;;;5063955;28;20290;-74
2021/11/16 00:06:20;;;;;;;31.90;17.75;;;;;;;;;;5069242;28;20205;-74
2021/11/16 00:08:48;;;;;;;33.67;18.98;;;;;;;;;;5062390;28;20777;-75
2021/11/16 00:11:16;;;;;;;30.50;19.45;;;;;;;;;;5060533;28;20201;-75
2021/11/16 00:13:44;;;;;;;24.45;15.93;;;;;;;;;;5061945;28;20195;-74
2021/11/16 00:16:11;;;;;;;29.63;17.23;;;;;;;;;;5063738;28;20210;-75
2021/11/16 00:18:38;;;;;;;28.13;18.58;;;;;;;;;;5070077;28;20217;-74
2021/11/16 00:21:08;;;;;;;27.38;18.92;;;;;;;;;;5070769;28;20205;-75
2021/11/16 00:23:37;;;;;;;31.17;20.25;;;;;;;;;;5071380;28;20300;-75
2021/11/16 00:26:06;;;;;;;30.10;18.60;;;;;;;;;;5056600;28;20207;-75
2021/11/16 00:28:33;;;;;;;29.92;18.15;;;;;;;;;;5054215;28;20194;-75
2021/11/16 00:31:00;;;;;;;29.02;18.60;;;;;;;;;;5060626;28;20209;-74
2021/11/16 00:33:28;;;;;;;25.27;17.10;;;;;;;;;;5073460;28;20194;-74
2021/11/16 00:35:56;;;;;;;27.08;17.63;;;;;;;;;;5067416;28;20191;-74
2021/11/16 00:38:25;;;;;;;29.25;17.40;;;;;;;;;;5065954;28;20234;-75
2021/11/16 00:40:52;;;;;;;28.38;20.88;;;;;;;;;;5055440;28;20726;-74
2021/11/16 00:43:21;;;;;;;32.00;17.95;;;;;;;;;;5065844;28;20530;-76
2021/11/16 00:45:49;;;;;;;34.33;19.52;;;;;;;;;;5069408;28;20206;-74
2021/11/16 00:48:17;;;;;;;26.25;16.75;;;;;;;;;;5057291;28;20197;-75
2021/11/16 00:50:45;;;;;;;27.77;17.35;;;;;;;;;;5068265;28;20304;-75
2021/11/16 00:53:12;;;;;;;26.85;17.10;;;;;;;;;;5073380;28;20229;-75
2021/11/16 00:55:39;;;;;;;27.85;19.20;;;;;;;;;;5054194;28;20207;-74
2021/11/16 00:58:06;;;;;;;31.63;17.23;;;;;;;;;;5056995;28;20206;-75
2021/11/16 01:00:35;;;;;;;31.73;19.98;;;;;;;;;;5053427;28;20217;-74
2021/11/16 01:03:02;;;;;;;27.00;18.35;;;;;;;;;;5063949;28;20198;-76
2021/11/16 01:05:29;;;;;;;30.92;18.10;;;;;;;;;;5072735;28;20557;-75
2021/11/16 01:07:57;;;;;;;33.80;19.42;;;;;;;;;;5073654;28;20206;-75
2021/11/16 01:10:24;;;;;;;33.25;18.65;;;;;;;;;;5054561;28;20205;-74
2021/11/16 01:12:51;;;;;;;25.40;17.00;;;;;;;;;;5069472;28;20217;-74
2021/11/16 01:15:18;;;;;;;27.48;17.50;;;;;;;;;;5069549;28;20678;-74
2021/11/16 01:17:47;;;;;;;29.23;18.15;;;;;;;;;;5072898;28;20280;-73
2021/11/16 01:20:15;;;;;;;31.10;20.33;;;;;;;;;;5054645;28;20692;-75
2021/11/16 01:22:43;;;;;;;28.38;17.80;;;;;;;;;;5052433;28;20202;-76
2021/11/16 01:25:11;;;;;;;28.30;18.83;;;;;;;;;;5058399;28;20194;-74
2021/11/16 01:27:38;;;;;;;27.85;18.83;;;;;;;;;;5072806;28;20661;-74
2021/11/16 01:30:06;;;;;;;32.70;19.10;;;;;;;;;;5071092;28;20630;-75
2021/11/16 01:32:37;;;;;;;32.03;18.60;;;;;;;;;;5052933;28;20223;-73
2021/11/16 01:35:07;;;;;;;29.10;19.08;;;;;;;;;;5056346;28;20297;-73
2021/11/16 01:37:34;;;;;;;28.70;17.63;;;;;;;;;;5066363;28;20198;-74
2021/11/16 01:40:01;;;;;;;28.45;17.42;;;;;;;;;;5057612;28;20199;-75
2021/11/16 01:42:29;;;;;;;25.20;17.23;;;;;;;;;;5052701;28;20702;-73
2021/11/16 01:44:56;;;;;;;30.05;18.20;;;;;;;;;;5067648;28;20599;-75
2021/11/16 01:47:23;;;;;;;27.40;17.42;;;;;;;;;;5052029;28;20206;-75
2021/11/16 01:49:50;;;;;;;29.17;18.80;;;;;;;;;;5058802;28;20304;-74
2021/11/16 01:52:19;;;;;;;25.65;16.95;;;;;;;;;;5067377;28;20211;-74
2021/11/16 01:54:46;;;;;;;30.77;17.60;;;;;;;;;;5052271;28;20198;-75
2021/11/16 01:57:13;;;;;;;27.98;18.17;;;;;;;;;;5069094;28;20210;-76
2021/11/16 01:59:40;;;;;;;31.42;16.73;;;;;;;;;;5068530;28;20218;-74
2021/11/16 02:02:07;;;;;;;24.88;16.55;;;;;;;;;;5065667;28;20195;-75
2021/11/16 02:04:35;;;;;;;26.88;15.25;;;;;;;;;;5067690;28;20229;-73
2021/11/16 02:07:02;;;;;;;29.75;17.30;;;;;;;;;;5070389;28;20204;-74
2021/11/16 02:09:31;;;;;;;24.45;16.05;;;;;;;;;;5062054;28;20261;-75
2021/11/16 02:11:58;;;;;;;27.42;15.93;;;;;;;;;;5061276;28;20608;-74
2021/11/16 02:14:25;;;;;;;25.13;16.02;;;;;;;;;;5065502;28;20205;-74
2021/11/16 02:16:52;;;;;;;25.60;16.80;;;;;;;;;;5057982;28;20194;-74
2021/11/16 02:19:20;;;;;;;24.98;15.10;;;;;;;;;;5054403;28;20206;-73
2021/11/16 02:21:49;;;;;;;25.48;17.85;;;;;;;;;;5060592;28;20186;-75
2021/11/16 02:24:16;;;;;;;26.92;15.90;;;;;;;;;;5067474;28;20190;-74
2021/11/16 02:26:43;;;;;;;29.73;17.85;;;;;;;;;;5063915;28;20675;-75
2021/11/16 02:29:11;;;;;;;26.08;17.25;;;;;;;;;;5069879;28;20190;-74
2021/11/16 02:31:38;;;;;;;23.60;15.95;;;;;;;;;;5069447;28;20194;-76
2021/11/16 02:34:06;;;;;;;27.05;16.55;;;;;;;;;;5051375;28;20685;-74
2021/11/16 02:36:34;;;;;;;28.63;17.35;;;;;;;;;;5061293;28;20190;-76
2021/11/16 02:39:05;;;;;;;26.30;15.02;;;;;;;;;;5063600;28;20207;-73
2021/11/16 02:41:34;;;;;;;25.02;15.20;;;;;;;;;;5070111;28;20198;-74
2021/11/16 02:44:02;;;;;;;23.70;15.20;;;;;;;;;;5055671;28;20194;-73
2021/11/16 02:46:29;;;;;;;24.20;15.95;;;;;;;;;;5059481;28;21009;-73
2021/11/16 02:48:57;;;;;;;24.33;17.55;;;;;;;;;;5064284;28;20210;-75
2021/11/16 02:51:24;;;;;;;28.42;17.83;;;;;;;;;;5051331;28;20203;-73
2021/11/16 02:53:51;;;;;;;31.90;18.95;;;;;;;;;;5055631;28;20225;-73
2021/11/16 02:56:19;;;;;;;29.85;18.88;;;;;;;;;;5067203;28;20205;-75
2021/11/16 02:58:47;;;;;;;28.80;19.15;;;;;;;;;;5069497;28;20668;-75
2021/11/16 03:01:17;;;;;;;28.73;18.73;;;;;;;;;;5063705;28;20298;-74
2021/11/16 03:03:44;;;;;;;29.98;16.90;;;;;;;;;;5063588;28;20197;-76
2021/11/16 03:06:12;;;;;;;26.20;15.65;;;;;;;;;;5064796;28;20213;-75
2021/11/16 03:08:39;;;;;;;30.05;18.08;;;;;;;;;;5069453;28;20692;-75
2021/11/16 03:11:07;;;;;;;24.67;16.17;;;;;;;;;;5069524;28;20206;-73
2021/11/16 03:13:37;;;;;;;25.60;16.23;;;;;;;;;;5066070;28;20214;-75
2021/11/16 03:16:05;;;;;;;35.55;18.45;;;;;;;;;;5052929;28;20210;-75
2021/11/16 03:18:32;;;;;;;21.95;14.32;;;;;;;;;;5062462;28;20190;-74
2021/11/16 03:20:59;;;;;;;24.52;15.57;;;;;;;;;;5067783;28;20202;-74
2021/11/16 03:23:26;;;;;;;27.17;17.52;;;;;;;;;;5069462;28;20669;-74
2021/11/16 03:25:56;;;;;;;31.85;16.85;;;;;;;;;;5052098;28;20205;-73
2021/11/16 03:28:25;;;;;;;28.65;15.88;;;;;;;;;;5071858;28;20200;-78
2021/11/16 03:30:54;;;;;;;29.00;16.80;;;;;;;;;;5071236;28;20550;-78
2021/11/16 03:33:23;;;;;;;21.42;14.63;;;;;;;;;;5068228;28;20338;-79
2021/11/16 03:35:50;;;;;;;24.00;14.90;;;;;;;;;;5061854;28;20203;-78
2021/11/16 03:38:19;;;;;;;23.50;15.05;;;;;;;;;;5070802;28;20201;-77
2021/11/16 03:40:47;;;;;;;26.10;16.67;;;;;;;;;;5055168;28;20209;-78
2021/11/16 03:43:16;;;;;;;30.95;17.52;;;;;;;;;;5059709;28;20190;-78
2021/11/16 03:45:44;;;;;;;21.50;14.68;;;;;;;;;;5065299;28;20190;-77
2021/11/16 03:48:12;;;;;;;26.60;15.82;;;;;;;;;;5058327;28;20574;-79
2021/11/16 03:50:41;;;;;;;24.45;14.75;;;;;;;;;;5051003;28;20207;-77
2021/11/16 03:53:09;;;;;;;29.33;15.25;;;;;;;;;;5053799;28;20225;-77
2021/11/16 03:55:36;;;;;;;26.08;15.90;;;;;;;;;;5071114;28;20190;-75
2021/11/16 03:58:04;;;;;;;24.45;15.10;;;;;;;;;;5068385;28;20202;-75
2021/11/16 04:00:32;;;;;;;28.08;14.50;;;;;;;;;;5074289;28;20214;-76
2021/11/16 04:02:59;;;;;;;24.77;13.98;;;;;;;;;;5073287;28;20221;-75
2021/11/16 04:05:28;;;;;;;28.40;17.60;;;;;;;;;;5067539;28;20202;-74
2021/11/16 04:07:56;;;;;;;24.92;15.27;;;;;;;;;;5071222;28;20206;-74
2021/11/16 04:10:23;;;;;;;26.52;15.25;;;;;;;;;;5056298;28;20230;-74
2021/11/16 04:12:52;;;;;;;21.75;14.35;;;;;;;;;;5054209;28;20226;-75
2021/11/16 04:15:21;;;;;;;23.30;16.45;;;;;;;;;;5061632;28;20198;-74
2021/11/16 04:17:48;;;;;;;21.02;13.80;;;;;;;;;;5056134;28;20293;-74
2021/11/16 04:20:16;;;;;;;22.70;14.15;;;;;;;;;;5068501;28;20642;-74
2021/11/16 04:22:45;;;;;;;27.58;15.95;;;;;;;;;;5074105;28;20642;-74
2021/11/16 04:25:13;;;;;;;21.38;13.63;;;;;;;;;;5064894;28;20205;-74
2021/11/16 04:27:41;;;;;;;24.27;14.07;;;;;;;;;;5069494;28;20252;-75
2021/11/16 04:30:09;;;;;;;21.38;14.40;;;;;;;;;;5066608;28;20198;-75
2021/11/16 04:32:36;;;;;;;21.13;13.07;;;;;;;;;;5065116;28;20662;-73
2021/11/16 04:35:04;;;;;;;24.13;14.63;;;;;;;;;;5066629;28;20202;-73
2021/11/16 04:37:32;;;;;;;18.90;13.57;;;;;;;;;;5059689;28;20187;-74
2021/11/16 04:40:00;;;;;;;30.67;17.33;;;;;;;;;;5062017;28;20212;-75
2021/11/16 04:42:28;;;;;;;23.80;13.90;;;;;;;;;;5071936;28;20557;-75
2021/11/16 04:44:55;;;;;;;24.60;12.93;;;;;;;;;;5066475;28;20227;-74
2021/11/16 04:47:27;;;;;;;25.15;14.77;;;;;;;;;;5053759;28;20210;-74
2021/11/16 04:49:59;;;;;;;24.05;14.63;;;;;;;;;;5063886;28;20293;-75
2021/11/16 04:52:32;;;;;;;24.33;15.07;;;;;;;;;;5066185;28;20198;-74
2021/11/16 04:55:20;;;;;;;27.85;15.18;;;;;;;;;;5072185;28;20202;-74
2021/11/16 05:03:17;;;;;;;25.52;15.43;;;;;;;;;;5053828;28;20213;-75
2021/11/16 05:05:44;;;;;;;25.50;15.43;;;;;;;;;;5069779;28;20252;-75
2021/11/16 05:08:14;;;;;;;25.02;14.60;;;;;;;;;;5064247;28;20557;-74
2021/11/16 05:10:42;;;;;;;27.38;16.23;;;;;;;;;;5064364;28;20289;-75
2021/11/16 05:13:10;;;;;;;29.02;16.55;;;;;;;;;;5053122;28;20226;-74
2021/11/16 05:15:40;;;;;;;23.40;14.50;;;;;;;;;;5053467;28;20201;-75
2021/11/16 05:18:07;;;;;;;22.88;15.20;;;;;;;;;;5062287;28;20647;-74
2021/11/16 05:20:34;;;;;;;24.00;14.73;;;;;;;;;;5065655;28;20194;-76
2021/11/16 05:23:01;;;;;;;22.77;15.02;;;;;;;;;;5070840;28;20213;-74
2021/11/16 05:25:29;;;;;;;26.83;15.50;;;;;;;;;;5054707;28;20487;-75
2021/11/16 05:27:57;;;;;;;25.70;15.55;;;;;;;;;;5067986;28;20527;-74
2021/11/16 05:30:29;;;;;;;24.50;14.60;;;;;;;;;;5055012;28;20190;-74
2021/11/16 05:32:56;;;;;;;25.92;14.52;;;;;;;;;;5068933;28;20194;-74
2021/11/16 05:35:23;;;;;;;24.27;16.17;;;;;;;;;;5072936;28;20199;-73
2021/11/16 05:37:50;;;;;;;27.48;18.33;;;;;;;;;;5071478;28;20209;-73
2021/11/16 05:40:17;;;;;;;25.02;16.60;;;;;;;;;;5063690;28;20202;-73
2021/11/16 05:42:44;;;;;;;24.67;15.18;;;;;;;;;;5072239;28;20213;-73
2021/11/16 05:45:12;;;;;;;22.85;15.32;;;;;;;;;;5070930;28;20687;-75
2021/11/16 05:47:41;;;;;;;24.55;14.95;;;;;;;;;;5064074;28;20593;-74
2021/11/16 05:50:09;;;;;;;26.13;15.20;;;;;;;;;;5063701;28;20653;-73
2021/11/16 05:52:38;;;;;;;21.52;15.10;;;;;;;;;;5068758;28;20205;-76
2021/11/16 05:55:08;;;;;;;26.02;17.05;;;;;;;;;;5057347;28;20229;-75
2021/11/16 05:57:35;;;;;;;26.83;15.02;;;;;;;;;;5059718;28;20224;-74
2021/11/16 06:00:02;;;;;;;23.98;15.27;;;;;;;;;;5066032;28;20214;-74
2021/11/16 06:02:31;;;;;;;25.08;14.48;;;;;;;;;;5064416;28;20367;-74
2021/11/16 06:04:58;;;;;;;20.35;15.15;;;;;;;;;;5064697;28;20550;-74
2021/11/16 06:07:25;;;;;;;22.48;13.63;;;;;;;;;;5057524;28;20654;-74
2021/11/16 06:09:52;;;;;;;28.48;15.27;;;;;;;;;;5061867;28;20666;-75
2021/11/16 06:12:19;;;;;;;23.40;16.35;;;;;;;;;;5066747;28;20205;-74
2021/11/16 06:14:46;;;;;;;21.85;14.15;;;;;;;;;;5069464;28;20210;-74
2021/11/16 06:17:13;;;;;;;24.85;16.30;;;;;;;;;;5068357;28;20660;-74
2021/11/16 06:19:42;;;;;;;23.20;15.63;;;;;;;;;;5070363;28;20217;-75
2021/11/16 06:22:10;;;;;;;24.40;15.55;;;;;;;;;;5065173;28;20244;-74
2021/11/16 06:24:38;;;;;;;22.55;13.73;;;;;;;;;;5070044;28;20247;-74
2021/11/16 06:27:05;;;;;;;25.55;15.95;;;;;;;;;;5070380;28;20703;-74
2021/11/16 06:29:33;;;;;;;22.27;14.07;;;;;;;;;;5069785;28;20267;-74
2021/11/16 06:32:00;;;;;;;26.83;14.75;;;;;;;;;;5070262;28;20194;-74
2021/11/16 06:34:27;;;;;;;25.00;16.95;;;;;;;;;;5065339;28;20584;-74
2021/11/16 06:36:56;;;;;;;28.30;16.00;;;;;;;;;;5070768;28;20557;-75
2021/11/16 06:39:23;;;;;;;22.63;13.68;;;;;;;;;;5054526;28;20207;-74
2021/11/16 06:41:51;;;;;;;23.65;14.38;;;;;;;;;;5069401;28;20633;-74
2021/11/16 06:44:19;;;;;;;22.48;15.13;;;;;;;;;;5071570;28;20194;-73
2021/11/16 06:46:48;;;;;;;26.05;14.30;;;;;;;;;;5067490;28;20205;-74
2021/11/16 06:49:16;;;;;;;19.02;13.20;;;;;;;;;;5069203;28;20221;-75
2021/11/16 06:51:44;;;;;;;20.60;13.70;;;;;;;;;;5070200;28;20550;-74
2021/11/16 06:54:13;;;;;;;25.25;15.43;;;;;;;;;;5053961;28;20674;-75
2021/11/16 06:56:41;;;;;;;24.17;15.05;;;;;;;;;;5051338;28;20203;-74
2021/11/16 06:59:09;;;;;;;25.95;14.52;;;;;;;;;;5051918;28;20563;-74
2021/11/16 07:01:37;;;;;;;28.67;16.55;;;;;;;;;;5064205;28;20194;-74
2021/11/16 07:04:09;;;;;;;22.67;11.55;;;;;;;;;;5059404;28;20188;-74
2021/11/16 07:06:36;;;;;;;23.88;16.80;;;;;;;;;;5066359;28;20234;-74
2021/11/16 07:09:04;;;;;;;24.88;14.75;;;;;;;;;;5064292;28;20668;-74
2021/11/16 07:11:32;;;;;;;24.80;14.88;;;;;;;;;;5064911;28;20201;-75
2021/11/16 07:14:01;;;;;;;24.25;16.15;;;;;;;;;;5061973;28;20218;-75
2021/11/16 07:16:30;;;;;;;21.35;14.45;;;;;;;;;;5066352;28;20568;-73
2021/11/16 07:18:57;;;;;;;25.80;14.18;;;;;;;;;;5055327;28;20249;-74
2021/11/16 07:21:25;;;;;;;29.15;15.68;;;;;;;;;;5069573;28;20234;-74
2021/11/16 07:24:03;;;;;;;25.92;14.75;;;;;;;;;;5058087;28;20198;-75
2021/11/16 07:26:30;;;;;;;24.02;14.63;;;;;;;;;;5051108;28;20198;-75
2021/11/16 07:28:59;;;;;;;27.48;15.55;;;;;;;;;;5058749;28;20195;-75
2021/11/16 07:31:27;;;;;;;20.17;13.45;;;;;;;;;;5055337;28;20199;-76
2021/11/16 07:33:59;;;;;;;19.52;13.73;;;;;;;;;;5061786;28;20221;-77
2021/11/16 07:36:26;;;;;;;23.00;15.73;;;;;;;;;;5071034;28;20651;-76
2021/11/16 07:38:53;;;;;;;24.75;15.20;;;;;;;;;;5066084;28;20221;-75
2021/11/16 07:41:22;;;;;;;23.75;15.73;;;;;;;;;;5058380;28;20608;-75
2021/11/16 07:43:49;;;;;;;28.52;16.95;;;;;;;;;;5062028;28;20267;-75
2021/11/16 07:46:17;;;;;;;25.92;16.35;;;;;;;;;;5073803;28;20194;-76
2021/11/16 07:48:44;;;;;;;30.42;18.40;;;;;;;;;;5073311;28;20668;-75
2021/11/16 07:51:13;;;;;;;27.17;15.82;;;;;;;;;;5057941;28;20206;-74
2021/11/16 07:53:41;;;;;;;25.42;16.70;;;;;;;;;;5059987;28;20194;-76
2021/11/16 07:56:09;;;;;;;34.05;17.10;;;;;;;;;;5064904;28;20201;-78
2021/11/16 07:58:38;;;;;;;31.63;18.77;;;;;;;;;;5072342;28;20202;-76
2021/11/16 08:01:10;;;;;;;31.48;17.77;;;;;;;;;;5066260;28;20662;-76
2021/11/16 08:03:51;;;;;;;30.10;18.63;;;;;;;;;;5063051;28;20195;-76
2021/11/16 08:06:28;;;;;;;34.50;18.48;;;;;;;;;;5064538;28;20200;-77
2021/11/16 08:09:11;;;;;;;31.85;18.65;;;;;;;;;;5054676;28;20202;-76
2021/11/16 08:11:42;;;;;;;28.33;17.05;;;;;;;;;;5070940;28;20200;-76
2021/11/16 08:14:11;;;;;;;30.40;17.50;;;;;;;;;;5055587;28;20225;-75
2021/11/16 08:16:49;;;;;;;29.00;17.17;;;;;;;;;;5054859;28;20317;-76
2021/11/16 08:19:19;;;;;;;32.67;18.75;;;;;;;;;;5054689;28;20626;-77
2021/11/16 08:21:47;;;;;;;27.90;16.98;;;;;;;;;;5054909;28;20226;-75
2021/11/16 08:24:15;;;;;;;27.35;17.75;;;;;;;;;;5065501;28;20191;-76
2021/11/16 08:26:43;;;;;;;32.85;18.98;;;;;;;;;;5059648;28;20325;-75
2021/11/16 08:29:12;;;;;;;29.77;18.98;;;;;;;;;;5066049;28;20727;-74
2021/11/16 08:31:45;;;;;;;29.40;17.83;;;;;;;;;;5059690;28;20293;-76
2021/11/16 08:34:12;;;;;;;26.75;17.40;;;;;;;;;;5073401;28;20218;-75
2021/11/16 08:36:45;;;;;;;33.38;17.10;;;;;;;;;;5060573;28;20677;-77
2021/11/16 08:39:13;;;;;;;31.02;18.27;;;;;;;;;;5064734;28;20678;-74
2021/11/16 08:41:40;;;;;;;27.13;18.17;;;;;;;;;;5066659;28;20247;-76
2021/11/16 08:44:12;;;;;;;32.80;19.60;;;;;;;;;;5063524;28;20562;-76
2021/11/16 08:46:39;;;;;;;31.65;18.70;;;;;;;;;;5063253;28;20642;-76
2021/11/16 08:49:06;;;;;;;29.75;16.63;;;;;;;;;;5063246;28;20205;-75
2021/11/16 08:51:41;;;;;;;33.80;18.25;;;;;;;;;;5069748;28;20346;-76
2021/11/16 08:54:09;;;;;;;31.42;20.75;;;;;;;;;;5063984;28;20702;-76
2021/11/16 08:56:38;;;;;;;28.83;18.75;;;;;;;;;;5067588;28;20209;-74
2021/11/16 08:59:11;;;;;;;29.73;19.55;;;;;;;;;;5066712;28;20218;-75
2021/11/16 09:01:38;;;;;;;31.85;18.13;;;;;;;;;;5069865;28;20569;-75
2021/11/16 09:04:07;;;;;;;27.08;17.27;;;;;;;;;;5067711;28;20202;-75
2021/11/16 09:06:38;;;;;;;33.33;18.52;;;;;;;;;;5068739;28;20198;-76
2021/11/16 09:09:10;;;;;;;24.45;17.77;;;;;;;;;;5065911;28;20645;-75
2021/11/16 09:11:39;;;;;;;37.05;21.08;;;;;;;;;;5073124;28;20292;-76
2021/11/16 09:14:11;;;;;;;35.08;17.92;;;;;;;;;;5068117;28;20213;-76
2021/11/16 09:16:40;;;;;;;29.08;18.63;;;;;;;;;;5072791;28;20237;-75
2021/11/16 09:19:07;;;;;;;33.33;18.58;;;;;;;;;;5060708;28;20214;-76
2021/11/16 09:21:38;;;;;;;29.25;18.73;;;;;;;;;;5053064;28;20547;-75
2021/11/16 09:24:07;;;;;;;28.58;17.50;;;;;;;;;;5055589;28;20206;-76
2021/11/16 09:26:38;;;;;;;33.75;17.35;;;;;;;;;;5072736;28;20649;-76
2021/11/16 09:29:08;;;;;;;27.73;17.15;;;;;;;;;;5070972;28;20193;-75
2021/11/16 09:31:36;;;;;;;28.30;16.67;;;;;;;;;;5063258;28;20213;-76
2021/11/16 09:34:06;;;;;;;32.15;18.88;;;;;;;;;;5072376;28;20198;-75
2021/11/16 09:36:36;;;;;;;34.97;18.50;;;;;;;;;;5065493;28;20337;-76
2021/11/16 09:39:07;;;;;;;33.45;18.00;;;;;;;;;;5064921;28;20225;-75
2021/11/16 09:41:40;;;;;;;29.60;17.50;;;;;;;;;;5070802;28;20233;-76
2021/11/16 09:44:10;;;;;;;32.90;17.95;;;;;;;;;;5072541;28;20691;-75
2021/11/16 09:46:44;;;;;;;30.05;17.25;;;;;;;;;;5066868;28;20198;-76
2021/11/16 09:49:12;;;;;;;34.50;17.17;;;;;;;;;;5055383;28;20232;-75
2021/11/16 09:51:40;;;;;;;30.70;19.00;;;;;;;;;;5053047;28;20723;-76
2021/11/16 09:54:08;;;;;;;30.15;16.92;;;;;;;;;;5060337;28;20199;-75
2021/11/16 09:56:36;;;;;;;30.85;17.45;;;;;;;;;;5056498;28;20190;-76
2021/11/16 09:59:03;;;;;;;25.95;15.77;;;;;;;;;;5072101;28;20218;-75
2021/11/16 10:01:36;;;;;;;29.85;16.95;;;;;;;;;;5068335;28;20195;-76
2021/11/16 10:04:19;;;;;;;29.17;17.20;;;;;;;;;;5069918;28;20664;-75
2021/11/16 10:06:46;;;;;;;27.27;18.02;;;;;;;;;;5069781;28;20218;-76
2021/11/16 10:09:14;;;;;;;24.27;15.25;;;;;;;;;;5057493;28;20347;-75
2021/11/16 10:11:43;;;;;;;33.05;17.17;;;;;;;;;;5062521;28;20202;-76
2021/11/16 10:14:15;;;;;;;25.42;16.20;;;;;;;;;;5052694;28;20191;-75
2021/11/16 10:16:44;;;;;;;28.92;18.55;;;;;;;;;;5065098;28;20706;-76
2021/11/16 10:19:12;;;;;;;29.95;17.52;;;;;;;;;;5070503;28;20194;-75
2021/11/16 10:21:39;;;;;;;26.92;15.43;;;;;;;;;;5071744;28;20198;-75
2021/11/16 10:24:20;;;;;;;28.00;16.70;;;;;;;;;;5071281;28;20208;-76
2021/11/16 10:26:47;;;;;;;26.65;15.13;;;;;;;;;;5057849;28;20653;-75
2021/11/16 10:29:17;;;;;;;27.42;16.48;;;;;;;;;;5063206;28;20229;-75
2021/11/16 10:31:46;;;;;;;25.33;17.15;;;;;;;;;;5071490;28;20544;-74
2021/11/16 10:34:13;;;;;;;25.20;15.25;;;;;;;;;;5051882;28;20195;-75
2021/11/16 10:36:40;;;;;;;26.65;17.35;;;;;;;;;;5051634;28;20206;-74
2021/11/16 10:39:07;;;;;;;26.25;15.85;;;;;;;;;;5063004;28;20202;-74
2021/11/16 10:41:35;;;;;;;30.50;17.40;;;;;;;;;;5067686;28;20202;-74
2021/11/16 10:44:03;;;;;;;23.85;15.40;;;;;;;;;;5071429;28;20212;-74
2021/11/16 10:46:31;;;;;;;27.80;14.95;;;;;;;;;;5069108;28;20202;-74
2021/11/16 10:49:05;;;;;;;29.85;17.25;;;;;;;;;;5071304;28;20205;-75
2021/11/16 10:51:33;;;;;;;26.23;16.80;;;;;;;;;;5051668;28;20198;-75
2021/11/16 10:54:01;;;;;;;29.73;16.80;;;;;;;;;;5061434;28;20623;-74
2021/11/16 10:56:29;;;;;;;31.38;17.45;;;;;;;;;;5066834;28;20284;-74
2021/11/16 10:59:02;;;;;;;28.17;17.10;;;;;;;;;;5070912;28;20221;-74
2021/11/16 11:01:29;;;;;;;23.83;15.73;;;;;;;;;;5059772;28;20268;-74
2021/11/16 11:03:57;;;;;;;23.63;14.60;;;;;;;;;;5060536;28;20217;-75
2021/11/16 11:06:26;;;;;;;25.48;15.07;;;;;;;;;;5069123;28;20650;-75
2021/11/16 11:08:54;;;;;;;22.70;15.27;;;;;;;;;;5066055;28;20230;-75
2021/11/16 11:11:23;;;;;;;30.27;17.92;;;;;;;;;;5055321;28;20691;-75
2021/11/16 11:13:54;;;;;;;27.58;15.55;;;;;;;;;;5070424;28;20197;-74
2021/11/16 11:16:22;;;;;;;26.45;15.57;;;;;;;;;;5070130;28;20558;-75
2021/11/16 11:18:50;;;;;;;24.52;14.70;;;;;;;;;;5067314;28;20198;-74
2021/11/16 11:21:29;;;;;;;25.83;14.30;;;;;;;;;;5069158;28;20194;-74
2021/11/16 11:23:58;;;;;;;26.88;16.38;;;;;;;;;;5066888;28;20197;-74
2021/11/16 11:26:38;;;;;;;24.08;15.55;;;;;;;;;;5055071;28;20237;-75
2021/11/16 11:29:19;;;;;;;27.85;14.88;;;;;;;;;;5069243;28;20557;-74
2021/11/16 11:31:47;;;;;;;26.10;16.20;;;;;;;;;;5064873;28;20194;-74
2021/11/16 11:34:14;;;;;;;23.33;13.25;;;;;;;;;;5068618;28;20206;-75
2021/11/16 11:36:43;;;;;;;26.92;16.08;;;;;;;;;;5070743;28;20213;-75
2021/11/16 11:39:28;;;;;;;28.13;15.07;;;;;;;;;;5069237;28;20198;-75
2021/11/16 11:41:57;;;;;;;25.23;17.02;;;;;;;;;;5066303;28;20202;-74
2021/11/16 11:44:26;;;;;;;21.90;15.00;;;;;;;;;;5071794;28;20190;-75
2021/11/16 11:46:55;;;;;;;20.42;15.43;;;;;;;;;;5059508;28;20189;-74
2021/11/16 11:49:23;;;;;;;26.85;16.35;;;;;;;;;;5061704;28;20239;-75
2021/11/16 11:51:51;;;;;;;28.40;15.85;;;;;;;;;;5060846;28;20542;-76
2021/11/16 11:54:19;;;;;;;27.00;15.40;;;;;;;;;;5055629;28;20649;-74
2021/11/16 11:56:47;;;;;;;30.08;18.00;;;;;;;;;;5063100;28;20233;-75
2021/11/16 11:59:15;;;;;;;25.70;15.57;;;;;;;;;;5056301;28;20225;-76
2021/11/16 12:01:42;;;;;;;27.23;16.63;;;;;;;;;;5056978;28;20681;-74
2021/11/16 12:04:10;;;;;;;25.15;15.13;;;;;;;;;;5067518;28;20209;-74
2021/11/16 12:06:39;;;;;;;24.65;16.35;;;;;;;;;;5056738;28;20653;-74
2021/11/16 12:09:08;;;;;;;23.13;14.90;;;;;;;;;;5058462;28;20434;-74
2021/11/16 12:11:35;;;;;;;30.15;17.08;;;;;;;;;;5053048;28;20209;-74
2021/11/16 12:14:05;;;;;;;30.77;16.20;;;;;;;;;;5066826;28;20202;-75
2021/11/16 12:16:36;;;;;;;33.05;17.25;;;;;;;;;;5063186;28;20214;-74
2021/11/16 12:19:04;;;;;;;21.75;13.27;;;;;;;;;;5069964;28;20653;-74
2021/11/16 12:21:34;;;;;;;27.55;15.73;;;;;;;;;;5071046;28;20228;-74
2021/11/16 12:24:01;;;;;;;22.55;14.57;;;;;;;;;;5061334;28;20654;-75
2021/11/16 12:26:31;;;;;;;25.05;14.98;;;;;;;;;;5057236;28;20206;-74
2021/11/16 12:29:12;;;;;;;26.10;15.90;;;;;;;;;;5068821;28;20194;-74
2021/11/16 12:31:39;;;;;;;23.92;15.32;;;;;;;;;;5060375;28;20198;-74
2021/11/16 12:34:06;;;;;;;23.20;15.23;;;;;;;;;;5066740;28;20217;-74
2021/11/16 12:36:47;;;;;;;22.90;13.43;;;;;;;;;;5056923;28;20223;-75
2021/11/16 12:39:16;;;;;;;22.17;13.48;;;;;;;;;;5065935;28;20202;-75
2021/11/16 12:41:46;;;;;;;24.77;14.70;;;;;;;;;;5070913;28;20194;-74
2021/11/16 12:44:14;;;;;;;19.35;13.38;;;;;;;;;;5071461;28;20228;-74
2021/11/16 12:46:42;;;;;;;26.83;15.25;;;;;;;;;;5064326;28;20261;-75
2021/11/16 12:49:10;;;;;;;18.27;13.13;;;;;;;;;;5068943;28;20669;-76
2021/11/16 12:51:38;;;;;;;19.63;13.00;;;;;;;;;;5068469;28;20608;-73
2021/11/16 12:54:07;;;;;;;23.02;13.60;;;;;;;;;;5065668;28;20195;-74
2021/11/16 12:57:01;;;;;;;23.73;14.77;;;;;;;;;;5065552;28;20215;-74
2021/11/16 12:59:43;;;;;;;23.17;13.85;;;;;;;;;;5012140;28;20216;-74
2021/11/16 13:02:21;;;;;;;21.10;13.68;;;;;;;;;;5065982;28;20194;-75
2021/11/16 13:04:51;;;;;;;20.27;14.77;;;;;;;;;;5062395;28;20202;-73
2021/11/16 13:07:20;;;;;;;26.10;16.52;;;;;;;;;;5053502;28;20199;-74
2021/11/16 13:09:48;;;;;;;22.38;15.48;;;;;;;;;;5054827;28;20503;-74
2021/11/16 13:12:30;;;;;;;22.67;15.85;;;;;;;;;;5058638;28;20195;-76
2021/11/16 13:14:57;;;;;;;23.58;16.63;;;;;;;;;;5072035;28;20225;-74
2021/11/16 13:17:43;;;;;;;22.40;15.45;;;;;;;;;;5061329;28;20241;-74
2021/11/16 13:20:12;;;;;;;28.50;16.17;;;;;;;;;;5054136;28;20559;-74
2021/11/16 13:22:46;;;;;;;21.90;14.48;;;;;;;;;;5056271;28;20249;-74
2021/11/16 13:25:28;;;;;;;28.55;16.13;;;;;;;;;;5064089;28;20206;-74
2021/11/16 13:27:56;;;;;;;24.08;14.07;;;;;;;;;;5058137;28;20646;-74
2021/11/16 13:30:24;;;;;;;22.02;14.48;;;;;;;;;;5054113;28;20240;-74
2021/11/16 13:32:51;;;;;;;26.33;15.52;;;;;;;;;;5067235;28;20221;-73
2021/11/16 13:35:19;;;;;;;21.55;14.43;;;;;;;;;;5063548;28;20198;-74
2021/11/16 13:37:50;;;;;;;26.85;15.20;;;;;;;;;;5071649;28;20221;-74
2021/11/16 13:40:22;;;;;;;21.77;16.30;;;;;;;;;;5066815;28;20221;-74
2021/11/16 13:42:50;;;;;;;27.08;14.85;;;;;;;;;;5056742;28;20653;-74
2021/11/16 13:45:18;;;;;;;20.45;13.75;;;;;;;;;;5062416;28;20196;-74
2021/11/16 13:47:47;;;;;;;20.08;14.98;;;;;;;;;;5068485;28;20561;-74
2021/11/16 13:50:16;;;;;;;19.80;13.38;;;;;;;;;;5051451;28;20206;-74
2021/11/16 13:52:47;;;;;;;19.00;14.65;;;;;;;;;;5078368;28;20244;-75
2021/11/16 13:55:15;;;;;;;22.77;13.75;;;;;;;;;;5068151;28;20656;-75
2021/11/16 13:57:43;;;;;;;23.40;13.15;;;;;;;;;;5072104;28;20217;-74
2021/11/16 14:00:13;;;;;;;21.23;14.68;;;;;;;;;;5057698;28;20215;-74
2021/11/16 14:02:50;;;;;;;21.20;13.27;;;;;;;;;;5066180;28;20565;-74
2021/11/16 14:05:17;;;;;;;19.75;13.15;;;;;;;;;;5060147;28;20205;-74
2021/11/16 14:07:53;;;;;;;21.20;13.07;;;;;;;;;;5071166;28;20198;-73
2021/11/16 14:10:20;;;;;;;19.35;11.75;;;;;;;;;;5054896;28;20202;-74
2021/11/16 14:12:48;;;;;;;21.45;13.00;;;;;;;;;;5052454;28;20755;-74
2021/11/16 14:15:18;;;;;;;21.20;13.50;;;;;;;;;;5070829;28;20217;-74
2021/11/16 14:17:45;;;;;;;22.38;14.38;;;;;;;;;;5062282;28;20210;-74
2021/11/16 14:20:14;;;;;;;17.60;13.10;;;;;;;;;;5068651;28;20775;-75
2021/11/16 14:22:41;;;;;;;17.27;12.45;;;;;;;;;;5071700;28;20256;-74
2021/11/16 14:25:17;;;;;;;21.67;12.85;;;;;;;;;;5060163;28;20202;-74
2021/11/16 14:27:45;;;;;;;21.73;12.18;;;;;;;;;;5052265;28;20593;-74
2021/11/16 14:30:14;;;;;;;18.13;13.15;;;;;;;;;;5062246;28;20229;-75
2021/11/16 14:32:41;;;;;;;18.33;13.15;;;;;;;;;;5070664;28;20573;-75